createdAt,value
2018-07-31T00:01:11.842Z,5.67
2018-07-31T00:03:24.135Z,6.27
2018-07-31T00:05:36.278Z,7.23
2018-07-31T00:07:48.482Z,6.23
2018-07-31T00:10:00.696Z,6.60
2018-07-31T00:12:12.883Z,6.00
2018-07-31T00:14:25.092Z,5.80
2018-07-31T00:16:37.311Z,5.87
2018-07-31T00:18:49.539Z,7.40
2018-07-31T00:21:01.753Z,6.20
2018-07-31T00:23:14.016Z,6.20
2018-07-31T00:25:26.213Z,6.60
2018-07-31T00:27:38.419Z,7.13
2018-07-31T00:29:50.586Z,7.40
2018-07-31T00:32:02.797Z,6.73
2018-07-31T00:34:14.987Z,7.20
2018-07-31T00:36:27.158Z,8.60
2018-07-31T00:38:39.363Z,7.27
2018-07-31T00:40:51.531Z,7.13
2018-07-31T00:43:03.711Z,7.50
2018-07-31T00:45:15.942Z,6.17
2018-07-31T00:47:28.544Z,7.73
2018-07-31T00:49:40.731Z,8.17
2018-07-31T00:51:52.926Z,6.83
2018-07-31T00:54:05.161Z,7.57
2018-07-31T00:56:17.464Z,6.77
2018-07-31T00:58:29.731Z,9.03
2018-07-31T01:00:41.976Z,7.20
2018-07-31T01:02:54.155Z,11.00
2018-07-31T01:05:06.501Z,7.73
2018-07-31T01:07:18.694Z,7.47
2018-07-31T01:09:30.918Z,7.50
2018-07-31T01:11:43.115Z,8.80
2018-07-31T01:13:55.311Z,7.43
2018-07-31T01:16:07.519Z,7.53
2018-07-31T01:18:19.691Z,7.50
2018-07-31T01:20:31.939Z,8.47
2018-07-31T01:22:44.139Z,6.60
2018-07-31T01:24:56.352Z,8.13
2018-07-31T01:27:08.582Z,8.43
2018-07-31T01:29:20.778Z,7.53
2018-07-31T01:31:33.223Z,7.47
2018-07-31T01:33:45.614Z,7.60
2018-07-31T01:35:57.850Z,8.30
2018-07-31T01:38:10.023Z,7.40
2018-07-31T01:40:22.224Z,8.57
2018-07-31T01:42:34.411Z,7.83
2018-07-31T01:44:46.582Z,6.50
2018-07-31T01:46:58.974Z,7.67
2018-07-31T01:49:11.166Z,10.53
2018-07-31T01:51:23.360Z,8.47
2018-07-31T01:53:35.591Z,7.17
2018-07-31T01:55:47.794Z,7.73
2018-07-31T01:58:00.002Z,7.27
2018-07-31T02:00:12.473Z,7.37
2018-07-31T02:02:24.654Z,7.73
2018-07-31T02:04:36.878Z,8.77
2018-07-31T02:06:49.130Z,8.77
2018-07-31T02:09:01.318Z,8.20
2018-07-31T02:11:13.508Z,6.83
2018-07-31T02:13:25.712Z,8.00
2018-07-31T02:15:37.923Z,6.93
2018-07-31T02:17:50.134Z,7.37
2018-07-31T02:20:02.440Z,7.00
2018-07-31T02:22:14.631Z,7.53
2018-07-31T02:24:26.846Z,7.27
2018-07-31T02:26:39.043Z,8.00
2018-07-31T02:28:51.302Z,7.43
2018-07-31T02:31:03.526Z,8.10
2018-07-31T02:33:15.767Z,7.37
2018-07-31T02:35:27.996Z,8.67
2018-07-31T02:37:40.207Z,8.63
2018-07-31T02:39:52.958Z,7.70
2018-07-31T02:42:05.314Z,8.10
2018-07-31T02:44:17.499Z,8.13
2018-07-31T02:46:29.721Z,7.07
2018-07-31T02:48:41.943Z,7.80
2018-07-31T02:50:54.554Z,7.47
2018-07-31T02:53:06.744Z,7.53
2018-07-31T02:55:18.950Z,8.17
2018-07-31T02:57:31.112Z,8.40
2018-07-31T02:59:43.331Z,8.43
2018-07-31T03:01:55.574Z,7.30
2018-07-31T03:04:07.829Z,9.13
2018-07-31T03:06:20.032Z,7.93
2018-07-31T03:08:32.203Z,8.33
2018-07-31T03:10:44.415Z,9.50
2018-07-31T03:12:56.639Z,7.90
2018-07-31T03:15:10.065Z,8.10
2018-07-31T03:17:22.325Z,10.83
2018-07-31T03:19:34.522Z,7.67
2018-07-31T03:21:46.730Z,7.57
2018-07-31T03:23:58.898Z,7.30
2018-07-31T03:26:11.058Z,8.33
2018-07-31T03:28:23.276Z,8.10
2018-07-31T03:30:35.470Z,8.90
2018-07-31T03:32:47.670Z,11.33
2018-07-31T03:34:59.854Z,7.67
2018-07-31T03:37:12.054Z,9.73
2018-07-31T03:39:24.272Z,9.63
2018-07-31T03:41:36.451Z,7.77
2018-07-31T03:43:48.626Z,8.30
2018-07-31T03:46:00.811Z,8.53
2018-07-31T03:48:13.034Z,9.80
2018-07-31T03:50:25.207Z,8.57
2018-07-31T03:52:37.452Z,8.30
2018-07-31T03:54:49.612Z,7.70
2018-07-31T03:57:01.795Z,8.67
2018-07-31T03:59:13.979Z,9.13
2018-07-31T04:01:26.177Z,8.93
2018-07-31T04:03:38.403Z,8.10
2018-07-31T04:05:50.679Z,8.40
2018-07-31T04:08:02.916Z,7.53
2018-07-31T04:10:15.115Z,7.80
2018-07-31T04:12:27.291Z,8.03
2018-07-31T04:14:39.499Z,8.50
2018-07-31T04:16:51.786Z,8.27
2018-07-31T04:19:03.955Z,9.67
2018-07-31T04:21:16.161Z,8.83
2018-07-31T04:23:28.362Z,7.80
2018-07-31T04:25:40.550Z,9.10
2018-07-31T04:27:52.883Z,8.40
2018-07-31T04:30:05.329Z,7.53
2018-07-31T04:32:17.458Z,8.40
2018-07-31T04:34:29.630Z,9.13
2018-07-31T04:36:41.848Z,7.60
2018-07-31T04:38:54.075Z,6.53
2018-07-31T04:41:06.518Z,7.93
2018-07-31T04:43:18.662Z,8.27
2018-07-31T04:45:30.847Z,10.03
2018-07-31T04:47:43.022Z,8.73
2018-07-31T04:49:55.225Z,9.77
2018-07-31T04:52:07.431Z,9.80
2018-07-31T04:54:19.598Z,8.03
2018-07-31T04:56:31.837Z,7.77
2018-07-31T04:58:44.012Z,8.23
2018-07-31T05:00:56.340Z,7.00
2018-07-31T05:03:08.514Z,7.63
2018-07-31T05:05:20.702Z,7.30
2018-07-31T05:07:36.714Z,8.07
2018-07-31T05:09:48.881Z,7.63
2018-07-31T05:12:01.066Z,8.43
2018-07-31T05:14:13.214Z,12.57
2018-07-31T05:16:25.423Z,6.20
2018-07-31T05:18:38.138Z,6.13
2018-07-31T05:20:50.383Z,7.13
2018-07-31T05:23:02.610Z,7.60
2018-07-31T05:25:14.821Z,7.13
2018-07-31T05:27:27.019Z,7.07
2018-07-31T05:29:39.206Z,10.17
2018-07-31T05:31:51.445Z,7.73
2018-07-31T05:34:03.656Z,11.33
2018-07-31T05:36:15.836Z,10.17
2018-07-31T05:38:28.090Z,8.83
2018-07-31T05:40:40.401Z,6.60
2018-07-31T05:42:52.571Z,7.57
2018-07-31T05:45:05.502Z,7.90
2018-07-31T05:47:17.716Z,7.33
2018-07-31T05:49:29.933Z,6.83
2018-07-31T05:51:42.131Z,7.97
2018-07-31T05:53:54.300Z,8.03
2018-07-31T05:56:06.523Z,9.23
2018-07-31T05:58:18.756Z,8.10
2018-07-31T06:00:30.983Z,9.30
2018-07-31T06:02:43.205Z,5.87
2018-07-31T06:04:55.453Z,6.77
2018-07-31T06:07:07.655Z,6.90
2018-07-31T06:09:19.846Z,7.47
2018-07-31T06:11:32.053Z,8.43
2018-07-31T06:13:44.285Z,7.10
2018-07-31T06:15:56.567Z,8.13
2018-07-31T06:18:08.780Z,7.67
2018-07-31T06:20:21.052Z,7.90
2018-07-31T06:22:33.242Z,8.47
2018-07-31T06:24:45.505Z,7.10
2018-07-31T06:26:57.755Z,7.83
2018-07-31T06:29:10.014Z,7.67
2018-07-31T06:31:22.223Z,8.07
2018-07-31T06:33:34.513Z,7.40
2018-07-31T06:35:46.756Z,8.50
2018-07-31T06:37:58.933Z,9.23
2018-07-31T06:40:11.127Z,7.83
2018-07-31T06:42:23.359Z,8.03
2018-07-31T06:44:35.566Z,8.67
2018-07-31T06:46:47.794Z,11.17
2018-07-31T06:48:59.982Z,8.63
2018-07-31T06:51:12.482Z,9.33
2018-07-31T06:53:24.694Z,8.93
2018-07-31T06:55:36.903Z,7.80
2018-07-31T06:57:49.142Z,9.27
2018-07-31T07:00:01.338Z,8.10
2018-07-31T07:02:13.630Z,9.77
2018-07-31T07:04:25.815Z,8.83
2018-07-31T07:06:38.012Z,8.97
2018-07-31T07:08:50.214Z,7.50
2018-07-31T07:11:02.436Z,9.27
2018-07-31T07:13:14.659Z,7.70
2018-07-31T07:15:26.846Z,7.63
2018-07-31T07:17:39.479Z,9.33
2018-07-31T07:19:51.661Z,8.17
2018-07-31T07:22:03.950Z,7.70
2018-07-31T07:24:16.173Z,10.43
2018-07-31T07:26:28.345Z,7.72
2018-07-31T07:28:40.577Z,8.38
2018-07-31T07:30:52.779Z,8.25
2018-07-31T07:33:05.021Z,7.97
2018-07-31T07:35:17.286Z,8.20
2018-07-31T07:37:29.500Z,12.55
2018-07-31T07:39:41.722Z,7.40
2018-07-31T07:41:53.932Z,8.08
2018-07-31T07:44:06.485Z,7.92
2018-07-31T07:46:18.674Z,8.53
2018-07-31T07:48:30.930Z,9.05
2018-07-31T07:50:43.115Z,7.87
2018-07-31T07:52:55.337Z,8.25
2018-07-31T07:55:07.626Z,8.03
2018-07-31T07:57:19.858Z,7.70
2018-07-31T07:59:32.087Z,6.85
2018-07-31T08:01:44.315Z,8.03
2018-07-31T08:03:56.551Z,8.05
2018-07-31T08:06:08.764Z,8.33
2018-07-31T08:08:21.035Z,8.00
2018-07-31T08:10:33.240Z,8.80
2018-07-31T08:12:45.454Z,8.90
2018-07-31T08:14:57.805Z,7.80
2018-07-31T08:17:10.004Z,8.08
2018-07-31T08:19:22.193Z,6.90
2018-07-31T08:21:34.446Z,6.92
2018-07-31T08:23:46.682Z,7.60
2018-07-31T08:25:58.930Z,8.28
2018-07-31T08:28:11.119Z,7.10
2018-07-31T08:30:23.364Z,7.90
2018-07-31T08:32:35.606Z,7.37
2018-07-31T08:34:47.815Z,7.53
2018-07-31T08:37:00.085Z,7.85
2018-07-31T08:39:12.355Z,7.03
2018-07-31T08:41:24.659Z,6.25
2018-07-31T08:43:36.856Z,9.20
2018-07-31T08:45:49.128Z,8.20
2018-07-31T08:48:01.339Z,7.37
2018-07-31T08:50:13.553Z,7.08
2018-07-31T08:52:25.831Z,7.85
2018-07-31T08:54:38.070Z,9.03
2018-07-31T08:56:50.328Z,7.70
2018-07-31T08:59:02.468Z,7.55
2018-07-31T09:01:14.767Z,7.42
2018-07-31T09:03:27.053Z,7.83
2018-07-31T09:05:39.270Z,9.33
2018-07-31T09:07:51.510Z,7.70
2018-07-31T09:10:04.755Z,8.08
2018-07-31T09:12:17.002Z,8.13
2018-07-31T09:14:29.206Z,7.70
2018-07-31T09:16:41.430Z,7.58
2018-07-31T09:18:53.654Z,7.47
2018-07-31T09:21:05.894Z,7.30
2018-07-31T09:23:18.130Z,7.40
2018-07-31T09:25:36.007Z,7.87
2018-07-31T09:27:48.274Z,7.87
2018-07-31T09:30:00.491Z,7.58
2018-07-31T09:32:12.780Z,7.28
2018-07-31T09:34:24.973Z,8.13
2018-07-31T09:36:37.191Z,8.68
2018-07-31T09:38:49.414Z,9.18
2018-07-31T09:41:01.678Z,7.97
2018-07-31T09:43:13.924Z,8.65
2018-07-31T09:45:26.227Z,7.85
2018-07-31T09:47:38.449Z,6.85
2018-07-31T09:49:50.686Z,8.20
2018-07-31T09:52:03.378Z,7.80
2018-07-31T09:54:15.675Z,7.60
2018-07-31T09:56:27.912Z,7.40
2018-07-31T09:58:40.185Z,6.53
2018-07-31T10:00:58.108Z,8.78
2018-07-31T10:03:10.329Z,7.58
2018-07-31T10:05:22.904Z,8.20
2018-07-31T10:07:35.070Z,7.70
2018-07-31T10:09:47.315Z,7.10
2018-07-31T10:11:59.608Z,7.05
2018-07-31T10:14:11.810Z,9.28
2018-07-31T10:16:23.992Z,7.87
2018-07-31T10:18:36.185Z,7.10
2018-07-31T10:20:48.443Z,7.60
2018-07-31T10:23:00.647Z,7.47
2018-07-31T10:25:12.866Z,9.15
2018-07-31T10:27:25.071Z,7.28
2018-07-31T10:29:37.310Z,6.65
2018-07-31T10:31:49.485Z,11.20
2018-07-31T10:34:01.715Z,7.00
2018-07-31T10:36:13.990Z,8.38
2018-07-31T10:38:26.290Z,7.10
2018-07-31T10:40:38.504Z,7.22
2018-07-31T10:42:50.705Z,7.20
2018-07-31T10:45:03.307Z,6.67
2018-07-31T10:47:15.514Z,6.67
2018-07-31T10:49:27.711Z,6.20
2018-07-31T10:51:39.995Z,6.70
2018-07-31T10:53:52.220Z,6.83
2018-07-31T10:56:04.527Z,6.70
2018-07-31T10:58:16.843Z,8.43
2018-07-31T11:00:29.015Z,5.55
2018-07-31T11:02:41.241Z,6.12
2018-07-31T11:04:53.478Z,6.47
2018-07-31T11:07:05.690Z,8.33
2018-07-31T11:09:17.927Z,6.15
2018-07-31T11:11:30.172Z,5.83
2018-07-31T11:13:42.427Z,6.08
2018-07-31T11:15:54.705Z,5.78
2018-07-31T11:18:06.910Z,5.85
2018-07-31T11:20:19.154Z,6.33
2018-07-31T11:22:31.366Z,7.80
2018-07-31T11:24:43.615Z,6.03
2018-07-31T11:26:55.911Z,7.85
2018-07-31T11:29:08.137Z,6.30
2018-07-31T11:31:20.342Z,6.08
2018-07-31T11:33:32.597Z,6.70
2018-07-31T11:35:44.786Z,6.85
2018-07-31T11:37:57.030Z,5.80
2018-07-31T11:40:09.247Z,6.00
2018-07-31T11:42:21.510Z,5.65
2018-07-31T11:44:33.732Z,6.85
2018-07-31T11:46:45.942Z,6.20
2018-07-31T11:48:58.130Z,6.50
2018-07-31T11:51:11.255Z,6.37
2018-07-31T11:53:23.559Z,6.45
2018-07-31T11:55:35.762Z,6.62
2018-07-31T11:57:48.022Z,6.25
2018-07-31T12:00:00.276Z,8.45
2018-07-31T12:02:12.550Z,6.22
2018-07-31T12:04:24.822Z,8.40
2018-07-31T12:06:37.310Z,7.53
2018-07-31T12:08:49.512Z,6.50
2018-07-31T12:11:01.804Z,6.87
2018-07-31T12:13:14.050Z,8.18
2018-07-31T12:15:26.291Z,7.62
2018-07-31T12:17:38.507Z,6.60
2018-07-31T12:19:50.794Z,6.42
2018-07-31T12:22:02.998Z,6.72
2018-07-31T12:24:15.349Z,7.03
2018-07-31T12:26:27.535Z,6.85
2018-07-31T12:28:39.758Z,7.25
2018-07-31T12:30:52.065Z,5.90
2018-07-31T12:33:04.363Z,6.33
2018-07-31T12:35:16.595Z,6.62
2018-07-31T12:37:28.870Z,6.60
2018-07-31T12:39:41.074Z,6.30
2018-07-31T12:41:53.339Z,6.72
2018-07-31T12:44:05.624Z,6.50
2018-07-31T12:46:17.853Z,6.40
2018-07-31T12:48:30.044Z,5.95
2018-07-31T12:50:42.286Z,6.62
2018-07-31T12:52:54.517Z,8.03
2018-07-31T12:55:06.757Z,6.05
2018-07-31T12:57:19.051Z,6.62
2018-07-31T12:59:31.251Z,5.55
2018-07-31T13:01:43.579Z,5.25
2018-07-31T13:03:55.837Z,5.85
2018-07-31T13:06:08.040Z,6.33
2018-07-31T13:08:20.314Z,6.42
2018-07-31T13:10:32.540Z,7.50
2018-07-31T13:12:44.779Z,6.83
2018-07-31T13:14:57.044Z,8.43
2018-07-31T13:17:09.276Z,6.20
2018-07-31T13:19:21.567Z,6.17
2018-07-31T13:21:33.861Z,7.70
2018-07-31T13:23:46.112Z,6.67
2018-07-31T13:25:58.362Z,6.10
2018-07-31T13:28:10.630Z,6.80
2018-07-31T13:30:22.814Z,6.80
2018-07-31T13:32:35.055Z,6.30
2018-07-31T13:34:47.282Z,6.65
2018-07-31T13:36:59.603Z,6.55
2018-07-31T13:39:11.864Z,5.90
2018-07-31T13:41:24.138Z,6.08
2018-07-31T13:43:36.453Z,6.92
2018-07-31T13:45:48.686Z,7.22
2018-07-31T13:48:00.897Z,5.78
2018-07-31T13:50:13.119Z,5.80
2018-07-31T13:52:25.339Z,6.40
2018-07-31T13:54:37.659Z,5.65
2018-07-31T13:56:49.976Z,6.03
2018-07-31T13:59:02.242Z,6.47
2018-07-31T14:01:14.524Z,6.15
2018-07-31T14:03:26.782Z,5.28
2018-07-31T14:05:39.012Z,6.47
2018-07-31T14:07:51.309Z,5.92
2018-07-31T14:10:03.971Z,5.85
2018-07-31T14:12:16.320Z,5.62
2018-07-31T14:14:28.591Z,6.80
2018-07-31T14:16:40.839Z,6.58
2018-07-31T14:18:53.147Z,5.72
2018-07-31T14:21:05.457Z,7.00
2018-07-31T14:23:17.659Z,6.03
2018-07-31T14:25:29.978Z,5.55
2018-07-31T14:27:42.266Z,6.85
2018-07-31T14:29:54.643Z,7.78
2018-07-31T14:32:06.908Z,9.83
2018-07-31T14:34:19.119Z,5.10
2018-07-31T14:36:31.422Z,6.12
2018-07-31T14:38:43.773Z,8.08
2018-07-31T14:40:56.033Z,5.60
2018-07-31T14:43:08.575Z,5.75
2018-07-31T14:45:20.832Z,5.05
2018-07-31T14:47:33.494Z,5.95
2018-07-31T14:49:45.771Z,6.12
2018-07-31T14:51:58.050Z,5.92
2018-07-31T14:54:10.334Z,6.97
2018-07-31T14:56:22.537Z,5.65
2018-07-31T14:58:34.805Z,6.65
2018-07-31T15:00:47.096Z,5.60
2018-07-31T15:02:59.358Z,6.10
2018-07-31T15:05:11.569Z,5.92
2018-07-31T15:07:23.851Z,6.25
2018-07-31T15:09:36.059Z,5.87
2018-07-31T15:11:48.287Z,6.60
2018-07-31T15:14:00.545Z,6.00
2018-07-31T15:16:12.732Z,6.05
2018-07-31T15:18:24.988Z,6.10
2018-07-31T15:20:37.337Z,6.45
2018-07-31T15:22:49.739Z,5.35
2018-07-31T15:25:01.967Z,5.92
2018-07-31T15:27:14.204Z,5.47
2018-07-31T15:29:26.395Z,5.83
2018-07-31T15:31:38.695Z,6.92
2018-07-31T15:33:51.051Z,5.50
2018-07-31T15:36:03.320Z,6.20
2018-07-31T15:38:15.573Z,6.10
2018-07-31T15:40:27.811Z,5.53
2018-07-31T15:42:40.094Z,5.62
2018-07-31T15:44:52.287Z,5.83
2018-07-31T15:47:04.600Z,6.60
2018-07-31T15:49:16.838Z,5.97
2018-07-31T15:51:29.106Z,6.67
2018-07-31T15:53:41.391Z,6.20
2018-07-31T15:55:53.639Z,5.75
2018-07-31T15:58:05.910Z,5.42
2018-07-31T16:00:18.203Z,5.55
2018-07-31T16:02:30.373Z,6.47
2018-07-31T16:04:42.600Z,5.55
2018-07-31T16:06:54.834Z,7.28
2018-07-31T16:09:08.920Z,5.80
2018-07-31T16:11:21.178Z,5.37
2018-07-31T16:13:33.439Z,6.03
2018-07-31T16:15:45.710Z,6.33
2018-07-31T16:17:57.922Z,5.65
2018-07-31T16:20:10.206Z,6.08
2018-07-31T16:22:22.940Z,5.03
2018-07-31T16:24:35.191Z,5.87
2018-07-31T16:26:47.464Z,6.20
2018-07-31T16:28:59.704Z,5.85
2018-07-31T16:31:12.009Z,6.10
2018-07-31T16:33:24.236Z,6.00
2018-07-31T16:35:36.497Z,5.50
2018-07-31T16:37:48.732Z,5.33
2018-07-31T16:40:00.975Z,5.45
2018-07-31T16:42:13.160Z,6.37
2018-07-31T16:44:25.444Z,5.33
2018-07-31T16:46:37.694Z,5.62
2018-07-31T16:48:50.036Z,6.20
2018-07-31T16:51:02.279Z,5.87
2018-07-31T16:53:14.588Z,6.75
2018-07-31T16:55:26.838Z,6.28
2018-07-31T16:57:39.109Z,6.10
2018-07-31T16:59:51.374Z,5.83
2018-07-31T17:02:03.767Z,5.37
2018-07-31T17:04:16.063Z,5.90
2018-07-31T17:06:28.277Z,6.85
2018-07-31T17:08:40.602Z,5.50
2018-07-31T17:10:52.822Z,5.60
2018-07-31T17:13:05.186Z,5.35
2018-07-31T17:15:17.381Z,5.78
2018-07-31T17:17:29.816Z,5.70
2018-07-31T17:19:42.077Z,5.70
2018-07-31T17:21:54.332Z,5.80
2018-07-31T17:24:06.633Z,6.28
2018-07-31T17:26:18.922Z,5.50
2018-07-31T17:28:31.230Z,6.15
2018-07-31T17:30:43.450Z,5.60
2018-07-31T17:32:55.731Z,6.97
2018-07-31T17:35:08.046Z,5.95
2018-07-31T17:37:20.315Z,5.97
2018-07-31T17:39:32.551Z,6.72
2018-07-31T17:41:44.848Z,7.55
2018-07-31T17:43:57.176Z,5.35
2018-07-31T17:46:09.479Z,6.10
2018-07-31T17:48:21.714Z,6.10
2018-07-31T17:50:34.006Z,7.03
2018-07-31T17:52:46.292Z,6.62
2018-07-31T17:54:58.562Z,5.53
2018-07-31T17:57:10.846Z,6.50
2018-07-31T17:59:23.099Z,6.47
2018-07-31T18:01:35.357Z,6.12
2018-07-31T18:03:47.618Z,5.90
2018-07-31T18:05:59.990Z,9.23
2018-07-31T18:08:12.266Z,6.05
2018-07-31T18:10:24.547Z,5.87
2018-07-31T18:12:36.868Z,6.40
2018-07-31T18:14:49.154Z,6.47
2018-07-31T18:17:01.347Z,6.75
2018-07-31T18:19:13.567Z,6.17
2018-07-31T18:21:25.843Z,6.12
2018-07-31T18:23:38.208Z,6.47
2018-07-31T18:25:50.431Z,6.35
2018-07-31T18:28:02.795Z,6.75
2018-07-31T18:30:15.053Z,6.28
2018-07-31T18:32:27.401Z,6.62
2018-07-31T18:34:39.731Z,6.97
2018-07-31T18:36:52.005Z,6.12
2018-07-31T18:39:07.253Z,6.37
2018-07-31T18:41:19.573Z,5.70
2018-07-31T18:43:31.804Z,6.83
2018-07-31T18:45:44.075Z,5.92
2018-07-31T18:47:56.442Z,5.97
2018-07-31T18:50:08.698Z,8.18
2018-07-31T18:52:20.944Z,6.28
2018-07-31T18:54:33.202Z,6.40
2018-07-31T18:56:45.450Z,5.72
2018-07-31T18:58:57.822Z,6.20
2018-07-31T19:01:10.151Z,5.40
2018-07-31T19:03:22.410Z,5.78
2018-07-31T19:05:34.697Z,6.47
2018-07-31T19:07:46.951Z,6.30
2018-07-31T19:09:59.230Z,6.58
2018-07-31T19:12:11.482Z,5.97
2018-07-31T19:14:23.763Z,4.72
2018-07-31T19:16:36.042Z,4.95
2018-07-31T19:18:48.278Z,4.45
2018-07-31T19:21:01.145Z,5.58
2018-07-31T19:23:13.434Z,5.40
2018-07-31T19:25:25.705Z,8.60
2018-07-31T19:27:38.290Z,7.30
2018-07-31T19:29:50.646Z,6.22
2018-07-31T19:32:02.963Z,6.17
2018-07-31T19:34:15.283Z,5.42
2018-07-31T19:36:27.496Z,8.95
2018-07-31T19:38:39.755Z,5.92
2018-07-31T19:40:52.049Z,5.03
2018-07-31T19:43:04.324Z,6.20
2018-07-31T19:45:16.603Z,5.67
2018-07-31T19:47:28.891Z,6.83
2018-07-31T19:49:41.142Z,9.78
2018-07-31T19:51:53.442Z,6.55
2018-07-31T19:54:05.807Z,7.10
2018-07-31T19:56:18.027Z,7.00
2018-07-31T19:58:30.270Z,6.37
2018-07-31T20:00:42.608Z,6.33
2018-07-31T20:02:54.894Z,7.15
2018-07-31T20:05:07.494Z,5.90
2018-07-31T20:07:19.796Z,7.28
2018-07-31T20:09:32.071Z,5.67
2018-07-31T20:11:44.341Z,5.75
2018-07-31T20:13:56.659Z,5.42
2018-07-31T20:16:08.976Z,5.05
2018-07-31T20:18:21.215Z,5.60
2018-07-31T20:20:33.579Z,5.08
2018-07-31T20:22:45.808Z,5.25
2018-07-31T20:24:58.098Z,6.05
2018-07-31T20:27:10.367Z,6.22
2018-07-31T20:29:22.644Z,5.65
2018-07-31T20:31:34.954Z,5.17
2018-07-31T20:33:47.171Z,4.42
2018-07-31T20:35:59.421Z,6.12
2018-07-31T20:38:11.679Z,5.05
2018-07-31T20:40:24.043Z,5.40
2018-07-31T20:42:36.281Z,5.00
2018-07-31T20:44:48.634Z,7.67
2018-07-31T20:47:00.987Z,6.00
2018-07-31T20:49:13.223Z,7.03
2018-07-31T20:51:25.536Z,4.75
2018-07-31T20:53:37.802Z,5.80
2018-07-31T20:55:50.036Z,5.20
2018-07-31T20:58:02.294Z,6.85
2018-07-31T21:00:14.554Z,5.35
2018-07-31T21:02:26.856Z,4.67
2018-07-31T21:04:39.111Z,4.00
2018-07-31T21:06:51.436Z,5.55
2018-07-31T21:09:06.994Z,4.42
2018-07-31T21:11:19.174Z,5.03
2018-07-31T21:13:31.461Z,3.55
2018-07-31T21:15:43.692Z,4.08
2018-07-31T21:17:56.048Z,3.62
2018-07-31T21:20:08.328Z,2.80
2018-07-31T21:22:20.534Z,4.15
2018-07-31T21:24:32.792Z,5.08
2018-07-31T21:26:45.033Z,4.65
2018-07-31T21:28:57.294Z,8.13
2018-07-31T21:31:09.544Z,4.35
2018-07-31T21:33:22.165Z,3.87
2018-07-31T21:35:34.443Z,4.45
2018-07-31T21:37:46.700Z,5.22
2018-07-31T21:39:58.942Z,3.87
2018-07-31T21:42:11.191Z,4.10
2018-07-31T21:44:23.458Z,4.45
2018-07-31T21:46:35.794Z,4.25
2018-07-31T21:48:47.999Z,5.78
2018-07-31T21:51:00.206Z,4.78
2018-07-31T21:53:12.434Z,3.90
2018-07-31T21:55:24.620Z,3.10
2018-07-31T21:57:36.843Z,4.78
2018-07-31T21:59:49.149Z,6.15
2018-07-31T22:02:01.425Z,4.30
2018-07-31T22:04:13.686Z,5.72
2018-07-31T22:06:25.877Z,3.80
2018-07-31T22:08:38.139Z,3.75
2018-07-31T22:10:50.333Z,4.45
2018-07-31T22:13:02.584Z,3.67
2018-07-31T22:15:14.844Z,4.95
2018-07-31T22:17:27.122Z,4.83
2018-07-31T22:19:39.943Z,4.83
2018-07-31T22:21:52.200Z,6.47
2018-07-31T22:24:04.567Z,3.77
2018-07-31T22:26:16.832Z,4.53
2018-07-31T22:28:29.062Z,5.40
2018-07-31T22:30:41.332Z,5.20
2018-07-31T22:32:53.550Z,9.03
2018-07-31T22:35:05.772Z,5.15
2018-07-31T22:37:18.037Z,4.37
2018-07-31T22:39:30.241Z,4.50
2018-07-31T22:41:42.519Z,4.87
2018-07-31T22:43:54.748Z,4.00
2018-07-31T22:46:07.071Z,4.40
2018-07-31T22:48:19.341Z,4.73
2018-07-31T22:50:31.550Z,5.33
2018-07-31T22:52:43.806Z,5.23
2018-07-31T22:54:56.183Z,6.40
2018-07-31T22:57:08.425Z,5.10
2018-07-31T22:59:20.675Z,5.43
2018-07-31T23:01:33.490Z,4.43
2018-07-31T23:03:45.738Z,4.57
2018-07-31T23:05:58.039Z,4.83
2018-07-31T23:08:10.267Z,4.80
2018-07-31T23:10:22.478Z,4.83
2018-07-31T23:12:34.734Z,5.03
2018-07-31T23:14:46.990Z,4.33
2018-07-31T23:16:59.243Z,5.67
2018-07-31T23:19:11.428Z,4.30
2018-07-31T23:21:23.744Z,5.13
2018-07-31T23:23:35.928Z,5.23
2018-07-31T23:25:48.201Z,4.57
2018-07-31T23:28:00.431Z,4.40
2018-07-31T23:30:12.665Z,4.87
2018-07-31T23:32:24.939Z,4.43
2018-07-31T23:34:37.162Z,5.10
2018-07-31T23:36:49.371Z,5.30
2018-07-31T23:39:01.610Z,4.53
2018-07-31T23:41:13.837Z,5.03
2018-07-31T23:43:26.102Z,5.10
2018-07-31T23:45:38.332Z,4.47
2018-07-31T23:47:50.595Z,4.83
2018-07-31T23:50:02.882Z,4.10
2018-07-31T23:52:15.099Z,5.30
2018-07-31T23:54:27.399Z,4.43
2018-07-31T23:56:39.606Z,5.07
2018-07-31T23:58:51.810Z,4.40
